sensor_id;sensor_type;location;lat;lon;timestamp;P1;durP1;ratioP1;P2;durP2;ratioP2
62848;SDS011;48941;49.516;8.286;2024-02-23T00:02:21;3.53;;;0.90;;
62848;SDS011;48941;49.516;8.286;2024-02-23T00:04:49;5.35;;;1.52;;
62848;SDS011;48941;49.516;8.286;2024-02-23T00:07:17;1.45;;;0.68;;
62848;SDS011;48941;49.516;8.286;2024-02-23T00:09:45;1.52;;;0.80;;
62848;SDS011;48941;49.516;8.286;2024-02-23T00:12:13;3.38;;;0.88;;
62848;SDS011;48941;49.516;8.286;2024-02-23T00:14:43;2.03;;;0.82;;
62848;SDS011;48941;49.516;8.286;2024-02-23T00:17:11;2.58;;;1.08;;
62848;SDS011;48941;49.516;8.286;2024-02-23T00:19:39;1.92;;;0.80;;
62848;SDS011;48941;49.516;8.286;2024-02-23T00:22:06;4.05;;;1.30;;
62848;SDS011;48941;49.516;8.286;2024-02-23T00:24:34;2.72;;;0.93;;
62848;SDS011;48941;49.516;8.286;2024-02-23T00:27:03;4.00;;;1.13;;
62848;SDS011;48941;49.516;8.286;2024-02-23T00:29:31;3.03;;;0.95;;
62848;SDS011;48941;49.516;8.286;2024-02-23T00:32:00;4.15;;;0.95;;
62848;SDS011;48941;49.516;8.286;2024-02-23T00:34:28;4.35;;;0.85;;
62848;SDS011;48941;49.516;8.286;2024-02-23T00:36:58;2.03;;;0.63;;
62848;SDS011;48941;49.516;8.286;2024-02-23T00:39:26;4.43;;;1.08;;
62848;SDS011;48941;49.516;8.286;2024-02-23T00:41:53;2.45;;;0.93;;
62848;SDS011;48941;49.516;8.286;2024-02-23T00:44:21;2.75;;;1.00;;
62848;SDS011;48941;49.516;8.286;2024-02-23T00:46:49;3.45;;;1.33;;
62848;SDS011;48941;49.516;8.286;2024-02-23T00:49:17;7.25;;;1.42;;
62848;SDS011;48941;49.516;8.286;2024-02-23T00:51:45;4.50;;;1.10;;
62848;SDS011;48941;49.516;8.286;2024-02-23T00:54:13;2.45;;;0.70;;
62848;SDS011;48941;49.516;8.286;2024-02-23T00:56:40;5.18;;;1.10;;
62848;SDS011;48941;49.516;8.286;2024-02-23T00:59:17;2.10;;;1.00;;
62848;SDS011;48941;49.516;8.286;2024-02-23T01:01:45;5.22;;;1.23;;
62848;SDS011;48941;49.516;8.286;2024-02-23T01:04:12;3.78;;;0.93;;
62848;SDS011;48941;49.516;8.286;2024-02-23T01:06:42;5.43;;;1.30;;
62848;SDS011;48941;49.516;8.286;2024-02-23T01:09:09;1.63;;;1.00;;
62848;SDS011;48941;49.516;8.286;2024-02-23T01:11:37;4.50;;;1.10;;
62848;SDS011;48941;49.516;8.286;2024-02-23T01:14:06;2.45;;;0.90;;
62848;SDS011;48941;49.516;8.286;2024-02-23T01:16:34;3.53;;;1.00;;
62848;SDS011;48941;49.516;8.286;2024-02-23T01:19:02;5.00;;;1.20;;
62848;SDS011;48941;49.516;8.286;2024-02-23T01:21:30;2.05;;;0.80;;
62848;SDS011;48941;49.516;8.286;2024-02-23T01:23:59;3.65;;;1.45;;
62848;SDS011;48941;49.516;8.286;2024-02-23T01:26:27;2.85;;;0.60;;
62848;SDS011;48941;49.516;8.286;2024-02-23T01:28:55;1.13;;;0.50;;
62848;SDS011;48941;49.516;8.286;2024-02-23T01:31:23;1.70;;;0.55;;
62848;SDS011;48941;49.516;8.286;2024-02-23T01:33:51;3.55;;;0.95;;
62848;SDS011;48941;49.516;8.286;2024-02-23T01:36:18;1.85;;;0.57;;
62848;SDS011;48941;49.516;8.286;2024-02-23T01:38:46;0.40;;;0.40;;
62848;SDS011;48941;49.516;8.286;2024-02-23T01:41:15;1.27;;;0.60;;
62848;SDS011;48941;49.516;8.286;2024-02-23T01:43:43;0.85;;;0.70;;
62848;SDS011;48941;49.516;8.286;2024-02-23T01:46:11;0.40;;;0.40;;
62848;SDS011;48941;49.516;8.286;2024-02-23T01:48:39;1.63;;;0.75;;
62848;SDS011;48941;49.516;8.286;2024-02-23T01:51:06;2.28;;;0.70;;
62848;SDS011;48941;49.516;8.286;2024-02-23T01:53:34;2.63;;;0.75;;
62848;SDS011;48941;49.516;8.286;2024-02-23T01:56:02;2.65;;;0.90;;
62848;SDS011;48941;49.516;8.286;2024-02-23T01:58:33;2.20;;;0.52;;
62848;SDS011;48941;49.516;8.286;2024-02-23T02:01:02;3.92;;;0.80;;
62848;SDS011;48941;49.516;8.286;2024-02-23T02:03:30;1.13;;;0.80;;
62848;SDS011;48941;49.516;8.286;2024-02-23T02:05:59;2.63;;;0.65;;
62848;SDS011;48941;49.516;8.286;2024-02-23T02:08:27;3.80;;;1.00;;
62848;SDS011;48941;49.516;8.286;2024-02-23T02:10:55;6.55;;;0.88;;
62848;SDS011;48941;49.516;8.286;2024-02-23T02:13:23;4.88;;;1.48;;
62848;SDS011;48941;49.516;8.286;2024-02-23T02:15:52;3.10;;;0.70;;
62848;SDS011;48941;49.516;8.286;2024-02-23T02:18:19;4.30;;;1.10;;
62848;SDS011;48941;49.516;8.286;2024-02-23T02:20:50;3.15;;;1.25;;
62848;SDS011;48941;49.516;8.286;2024-02-23T02:23:19;3.83;;;1.20;;
62848;SDS011;48941;49.516;8.286;2024-02-23T02:25:51;2.10;;;0.98;;
62848;SDS011;48941;49.516;8.286;2024-02-23T02:28:19;2.55;;;1.05;;
62848;SDS011;48941;49.516;8.286;2024-02-23T02:30:48;2.67;;;1.30;;
62848;SDS011;48941;49.516;8.286;2024-02-23T02:33:17;5.00;;;1.00;;
62848;SDS011;48941;49.516;8.286;2024-02-23T02:35:45;4.68;;;0.77;;
62848;SDS011;48941;49.516;8.286;2024-02-23T02:38:12;3.55;;;0.95;;
62848;SDS011;48941;49.516;8.286;2024-02-23T02:40:40;5.97;;;0.93;;
62848;SDS011;48941;49.516;8.286;2024-02-23T02:43:08;3.17;;;1.08;;
62848;SDS011;48941;49.516;8.286;2024-02-23T02:45:36;1.75;;;0.75;;
62848;SDS011;48941;49.516;8.286;2024-02-23T02:48:04;1.55;;;0.82;;
62848;SDS011;48941;49.516;8.286;2024-02-23T02:50:33;5.20;;;0.90;;
62848;SDS011;48941;49.516;8.286;2024-02-23T02:53:01;0.82;;;0.68;;
62848;SDS011;48941;49.516;8.286;2024-02-23T02:55:29;2.33;;;0.95;;
62848;SDS011;48941;49.516;8.286;2024-02-23T02:57:57;3.70;;;0.82;;
62848;SDS011;48941;49.516;8.286;2024-02-23T03:00:25;2.58;;;0.65;;
62848;SDS011;48941;49.516;8.286;2024-02-23T03:02:53;3.00;;;0.98;;
62848;SDS011;48941;49.516;8.286;2024-02-23T03:05:20;2.33;;;1.00;;
62848;SDS011;48941;49.516;8.286;2024-02-23T03:07:50;3.05;;;1.30;;
62848;SDS011;48941;49.516;8.286;2024-02-23T03:10:17;5.47;;;1.45;;
62848;SDS011;48941;49.516;8.286;2024-02-23T03:12:45;4.30;;;1.40;;
62848;SDS011;48941;49.516;8.286;2024-02-23T03:15:13;2.67;;;1.10;;
62848;SDS011;48941;49.516;8.286;2024-02-23T03:17:41;3.50;;;1.35;;
62848;SDS011;48941;49.516;8.286;2024-02-23T03:20:10;3.70;;;1.10;;
62848;SDS011;48941;49.516;8.286;2024-02-23T03:22:39;1.92;;;1.33;;
62848;SDS011;48941;49.516;8.286;2024-02-23T03:25:08;3.13;;;1.30;;
62848;SDS011;48941;49.516;8.286;2024-02-23T03:27:36;3.22;;;1.33;;
62848;SDS011;48941;49.516;8.286;2024-02-23T03:30:04;1.40;;;0.93;;
62848;SDS011;48941;49.516;8.286;2024-02-23T03:32:34;1.08;;;0.80;;
62848;SDS011;48941;49.516;8.286;2024-02-23T03:35:05;1.20;;;0.80;;
62848;SDS011;48941;49.516;8.286;2024-02-23T03:37:34;2.97;;;0.93;;
62848;SDS011;48941;49.516;8.286;2024-02-23T03:40:02;5.57;;;1.25;;
62848;SDS011;48941;49.516;8.286;2024-02-23T03:42:32;4.07;;;1.00;;
62848;SDS011;48941;49.516;8.286;2024-02-23T03:45:00;1.38;;;0.68;;
62848;SDS011;48941;49.516;8.286;2024-02-23T03:47:27;4.93;;;1.13;;
62848;SDS011;48941;49.516;8.286;2024-02-23T03:49:55;1.60;;;0.95;;
62848;SDS011;48941;49.516;8.286;2024-02-23T03:52:23;4.57;;;0.90;;
62848;SDS011;48941;49.516;8.286;2024-02-23T03:54:51;8.05;;;1.27;;
62848;SDS011;48941;49.516;8.286;2024-02-23T03:57:20;2.63;;;0.85;;
62848;SDS011;48941;49.516;8.286;2024-02-23T03:59:52;1.00;;;0.75;;
62848;SDS011;48941;49.516;8.286;2024-02-23T04:02:20;4.03;;;1.13;;
62848;SDS011;48941;49.516;8.286;2024-02-23T04:04:48;3.70;;;1.00;;
62848;SDS011;48941;49.516;8.286;2024-02-23T04:07:16;2.35;;;1.13;;
62848;SDS011;48941;49.516;8.286;2024-02-23T04:09:44;3.33;;;1.05;;
62848;SDS011;48941;49.516;8.286;2024-02-23T04:12:18;5.80;;;1.15;;
62848;SDS011;48941;49.516;8.286;2024-02-23T04:14:46;2.83;;;1.15;;
62848;SDS011;48941;49.516;8.286;2024-02-23T04:17:15;4.53;;;1.13;;
62848;SDS011;48941;49.516;8.286;2024-02-23T04:19:43;2.78;;;0.82;;
62848;SDS011;48941;49.516;8.286;2024-02-23T04:22:11;3.13;;;0.80;;
62848;SDS011;48941;49.516;8.286;2024-02-23T04:24:39;5.28;;;1.30;;
62848;SDS011;48941;49.516;8.286;2024-02-23T04:27:07;7.65;;;1.52;;
62848;SDS011;48941;49.516;8.286;2024-02-23T04:29:35;2.05;;;1.00;;
62848;SDS011;48941;49.516;8.286;2024-02-23T04:32:03;2.88;;;1.00;;
62848;SDS011;48941;49.516;8.286;2024-02-23T04:34:33;4.63;;;0.90;;
62848;SDS011;48941;49.516;8.286;2024-02-23T04:37:01;6.47;;;1.02;;
62848;SDS011;48941;49.516;8.286;2024-02-23T04:39:29;3.22;;;1.20;;
62848;SDS011;48941;49.516;8.286;2024-02-23T04:41:56;4.95;;;2.15;;
62848;SDS011;48941;49.516;8.286;2024-02-23T04:44:24;6.13;;;1.75;;
62848;SDS011;48941;49.516;8.286;2024-02-23T04:46:52;7.10;;;2.40;;
62848;SDS011;48941;49.516;8.286;2024-02-23T04:49:20;5.50;;;1.73;;
62848;SDS011;48941;49.516;8.286;2024-02-23T04:51:49;3.63;;;1.88;;
62848;SDS011;48941;49.516;8.286;2024-02-23T04:54:17;4.07;;;1.30;;
62848;SDS011;48941;49.516;8.286;2024-02-23T04:56:44;9.30;;;2.92;;
62848;SDS011;48941;49.516;8.286;2024-02-23T04:59:13;9.55;;;2.78;;
62848;SDS011;48941;49.516;8.286;2024-02-23T05:01:41;11.32;;;3.20;;
62848;SDS011;48941;49.516;8.286;2024-02-23T05:04:09;8.43;;;2.95;;
62848;SDS011;48941;49.516;8.286;2024-02-23T05:06:37;7.55;;;2.92;;
62848;SDS011;48941;49.516;8.286;2024-02-23T05:09:06;3.28;;;1.73;;
62848;SDS011;48941;49.516;8.286;2024-02-23T05:11:35;6.78;;;1.70;;
62848;SDS011;48941;49.516;8.286;2024-02-23T05:14:03;2.70;;;1.58;;
62848;SDS011;48941;49.516;8.286;2024-02-23T05:16:32;4.40;;;1.45;;
62848;SDS011;48941;49.516;8.286;2024-02-23T05:19:00;7.40;;;1.95;;
62848;SDS011;48941;49.516;8.286;2024-02-23T05:21:27;6.47;;;2.22;;
62848;SDS011;48941;49.516;8.286;2024-02-23T05:23:55;3.42;;;0.80;;
62848;SDS011;48941;49.516;8.286;2024-02-23T05:26:24;1.85;;;1.02;;
62848;SDS011;48941;49.516;8.286;2024-02-23T05:28:52;2.65;;;0.98;;
62848;SDS011;48941;49.516;8.286;2024-02-23T05:31:20;5.13;;;2.03;;
62848;SDS011;48941;49.516;8.286;2024-02-23T05:33:48;3.58;;;1.17;;
62848;SDS011;48941;49.516;8.286;2024-02-23T05:36:16;6.10;;;1.25;;
62848;SDS011;48941;49.516;8.286;2024-02-23T05:38:44;7.50;;;1.40;;
62848;SDS011;48941;49.516;8.286;2024-02-23T05:41:12;3.28;;;1.40;;
62848;SDS011;48941;49.516;8.286;2024-02-23T05:43:41;6.22;;;1.10;;
62848;SDS011;48941;49.516;8.286;2024-02-23T05:46:09;4.28;;;1.15;;
62848;SDS011;48941;49.516;8.286;2024-02-23T05:48:37;3.17;;;1.30;;
62848;SDS011;48941;49.516;8.286;2024-02-23T05:51:05;1.70;;;1.10;;
62848;SDS011;48941;49.516;8.286;2024-02-23T05:53:32;5.80;;;1.50;;
62848;SDS011;48941;49.516;8.286;2024-02-23T05:56:01;5.00;;;1.83;;
62848;SDS011;48941;49.516;8.286;2024-02-23T05:58:29;4.40;;;1.77;;
62848;SDS011;48941;49.516;8.286;2024-02-23T06:00:59;5.43;;;1.70;;
62848;SDS011;48941;49.516;8.286;2024-02-23T06:03:26;1.45;;;1.27;;
62848;SDS011;48941;49.516;8.286;2024-02-23T06:05:54;4.15;;;1.83;;
62848;SDS011;48941;49.516;8.286;2024-02-23T06:08:22;3.30;;;1.58;;
62848;SDS011;48941;49.516;8.286;2024-02-23T06:10:50;3.47;;;1.50;;
62848;SDS011;48941;49.516;8.286;2024-02-23T06:13:18;4.68;;;1.60;;
62848;SDS011;48941;49.516;8.286;2024-02-23T06:15:45;2.80;;;2.10;;
62848;SDS011;48941;49.516;8.286;2024-02-23T06:18:14;5.78;;;2.42;;
62848;SDS011;48941;49.516;8.286;2024-02-23T06:20:42;5.00;;;2.10;;
62848;SDS011;48941;49.516;8.286;2024-02-23T06:23:10;4.90;;;2.25;;
62848;SDS011;48941;49.516;8.286;2024-02-23T06:25:39;7.32;;;2.30;;
62848;SDS011;48941;49.516;8.286;2024-02-23T06:28:09;4.85;;;1.70;;
62848;SDS011;48941;49.516;8.286;2024-02-23T06:30:38;5.88;;;2.08;;
62848;SDS011;48941;49.516;8.286;2024-02-23T06:33:05;2.15;;;1.20;;
62848;SDS011;48941;49.516;8.286;2024-02-23T06:35:35;8.02;;;1.50;;
62848;SDS011;48941;49.516;8.286;2024-02-23T06:38:02;3.30;;;1.17;;
62848;SDS011;48941;49.516;8.286;2024-02-23T06:40:32;5.05;;;1.40;;
62848;SDS011;48941;49.516;8.286;2024-02-23T06:43:13;9.05;;;1.27;;
62848;SDS011;48941;49.516;8.286;2024-02-23T06:45:42;5.30;;;1.67;;
62848;SDS011;48941;49.516;8.286;2024-02-23T06:48:10;6.70;;;1.30;;
62848;SDS011;48941;49.516;8.286;2024-02-23T06:50:39;6.53;;;1.52;;
62848;SDS011;48941;49.516;8.286;2024-02-23T06:53:07;4.90;;;1.20;;
62848;SDS011;48941;49.516;8.286;2024-02-23T06:55:35;2.28;;;1.40;;
62848;SDS011;48941;49.516;8.286;2024-02-23T06:58:03;2.75;;;1.30;;
62848;SDS011;48941;49.516;8.286;2024-02-23T07:00:31;4.50;;;1.48;;
62848;SDS011;48941;49.516;8.286;2024-02-23T07:02:59;4.18;;;1.17;;
62848;SDS011;48941;49.516;8.286;2024-02-23T07:05:30;8.70;;;1.92;;
62848;SDS011;48941;49.516;8.286;2024-02-23T07:08:00;3.58;;;1.65;;
62848;SDS011;48941;49.516;8.286;2024-02-23T07:10:28;4.60;;;1.55;;
62848;SDS011;48941;49.516;8.286;2024-02-23T07:12:55;3.25;;;1.30;;
62848;SDS011;48941;49.516;8.286;2024-02-23T07:15:24;5.35;;;1.48;;
62848;SDS011;48941;49.516;8.286;2024-02-23T07:17:52;4.00;;;1.30;;
62848;SDS011;48941;49.516;8.286;2024-02-23T07:20:20;4.90;;;1.10;;
62848;SDS011;48941;49.516;8.286;2024-02-23T07:22:47;4.07;;;1.27;;
62848;SDS011;48941;49.516;8.286;2024-02-23T07:25:17;3.90;;;1.30;;
62848;SDS011;48941;49.516;8.286;2024-02-23T07:27:47;4.75;;;1.15;;
62848;SDS011;48941;49.516;8.286;2024-02-23T07:30:16;5.32;;;1.20;;
62848;SDS011;48941;49.516;8.286;2024-02-23T07:32:44;2.92;;;1.30;;
62848;SDS011;48941;49.516;8.286;2024-02-23T07:35:18;7.30;;;1.50;;
62848;SDS011;48941;49.516;8.286;2024-02-23T07:37:46;6.28;;;1.40;;
62848;SDS011;48941;49.516;8.286;2024-02-23T07:40:14;9.15;;;1.67;;
62848;SDS011;48941;49.516;8.286;2024-02-23T07:42:48;4.53;;;1.42;;
62848;SDS011;48941;49.516;8.286;2024-02-23T07:45:15;1.17;;;1.00;;
62848;SDS011;48941;49.516;8.286;2024-02-23T07:47:43;2.90;;;1.23;;
62848;SDS011;48941;49.516;8.286;2024-02-23T07:50:12;7.05;;;1.67;;
62848;SDS011;48941;49.516;8.286;2024-02-23T07:52:40;4.68;;;1.50;;
62848;SDS011;48941;49.516;8.286;2024-02-23T07:55:08;4.47;;;1.27;;
62848;SDS011;48941;49.516;8.286;2024-02-23T07:57:42;4.55;;;1.10;;
62848;SDS011;48941;49.516;8.286;2024-02-23T08:00:12;1.92;;;1.13;;
62848;SDS011;48941;49.516;8.286;2024-02-23T08:02:40;4.30;;;1.05;;
62848;SDS011;48941;49.516;8.286;2024-02-23T08:05:08;3.67;;;1.30;;
62848;SDS011;48941;49.516;8.286;2024-02-23T08:07:36;3.83;;;1.10;;
62848;SDS011;48941;49.516;8.286;2024-02-23T08:10:04;7.65;;;1.30;;
62848;SDS011;48941;49.516;8.286;2024-02-23T08:12:33;5.45;;;1.20;;
62848;SDS011;48941;49.516;8.286;2024-02-23T08:15:07;7.53;;;1.10;;
62848;SDS011;48941;49.516;8.286;2024-02-23T08:17:36;3.70;;;1.02;;
62848;SDS011;48941;49.516;8.286;2024-02-23T08:20:05;4.85;;;1.27;;
62848;SDS011;48941;49.516;8.286;2024-02-23T08:22:34;4.47;;;1.40;;
62848;SDS011;48941;49.516;8.286;2024-02-23T08:25:02;6.18;;;1.50;;
62848;SDS011;48941;49.516;8.286;2024-02-23T08:27:30;6.05;;;1.20;;
62848;SDS011;48941;49.516;8.286;2024-02-23T08:29:57;5.60;;;2.10;;
62848;SDS011;48941;49.516;8.286;2024-02-23T08:32:25;3.35;;;1.45;;
62848;SDS011;48941;49.516;8.286;2024-02-23T08:34:55;6.72;;;1.80;;
62848;SDS011;48941;49.516;8.286;2024-02-23T08:37:26;7.18;;;1.88;;
62848;SDS011;48941;49.516;8.286;2024-02-23T08:39:53;5.13;;;2.13;;
62848;SDS011;48941;49.516;8.286;2024-02-23T08:42:21;4.80;;;1.98;;
62848;SDS011;48941;49.516;8.286;2024-02-23T08:44:49;6.00;;;2.13;;
62848;SDS011;48941;49.516;8.286;2024-02-23T08:47:17;7.25;;;1.50;;
62848;SDS011;48941;49.516;8.286;2024-02-23T08:49:44;4.13;;;1.80;;
62848;SDS011;48941;49.516;8.286;2024-02-23T08:52:14;5.25;;;1.48;;
62848;SDS011;48941;49.516;8.286;2024-02-23T08:54:41;4.72;;;1.40;;
62848;SDS011;48941;49.516;8.286;2024-02-23T08:57:09;5.28;;;1.08;;
62848;SDS011;48941;49.516;8.286;2024-02-23T08:59:37;6.00;;;1.80;;
62848;SDS011;48941;49.516;8.286;2024-02-23T09:02:05;6.53;;;1.60;;
62848;SDS011;48941;49.516;8.286;2024-02-23T09:04:33;5.32;;;1.23;;
62848;SDS011;48941;49.516;8.286;2024-02-23T09:07:00;4.35;;;1.45;;
62848;SDS011;48941;49.516;8.286;2024-02-23T09:09:30;6.05;;;1.42;;
62848;SDS011;48941;49.516;8.286;2024-02-23T09:11:57;5.22;;;1.23;;
62848;SDS011;48941;49.516;8.286;2024-02-23T09:14:25;4.68;;;1.50;;
62848;SDS011;48941;49.516;8.286;2024-02-23T09:16:53;8.25;;;1.48;;
62848;SDS011;48941;49.516;8.286;2024-02-23T09:19:21;5.38;;;1.58;;
62848;SDS011;48941;49.516;8.286;2024-02-23T09:21:48;8.73;;;1.58;;
62848;SDS011;48941;49.516;8.286;2024-02-23T09:24:16;4.13;;;1.40;;
62848;SDS011;48941;49.516;8.286;2024-02-23T09:26:47;3.58;;;1.33;;
62848;SDS011;48941;49.516;8.286;2024-02-23T09:29:15;5.07;;;1.30;;
62848;SDS011;48941;49.516;8.286;2024-02-23T09:31:43;4.53;;;1.83;;
62848;SDS011;48941;49.516;8.286;2024-02-23T09:34:10;3.45;;;1.13;;
62848;SDS011;48941;49.516;8.286;2024-02-23T09:36:38;6.05;;;1.30;;
62848;SDS011;48941;49.516;8.286;2024-02-23T09:39:06;5.63;;;1.50;;
62848;SDS011;48941;49.516;8.286;2024-02-23T09:41:35;5.63;;;1.45;;
62848;SDS011;48941;49.516;8.286;2024-02-23T09:44:06;3.65;;;1.20;;
62848;SDS011;48941;49.516;8.286;2024-02-23T09:46:36;3.85;;;1.27;;
62848;SDS011;48941;49.516;8.286;2024-02-23T09:49:04;4.07;;;1.38;;
62848;SDS011;48941;49.516;8.286;2024-02-23T09:51:34;6.35;;;1.45;;
62848;SDS011;48941;49.516;8.286;2024-02-23T09:54:03;5.38;;;1.20;;
62848;SDS011;48941;49.516;8.286;2024-02-23T09:56:31;4.55;;;1.35;;
62848;SDS011;48941;49.516;8.286;2024-02-23T09:59:00;8.85;;;1.70;;
62848;SDS011;48941;49.516;8.286;2024-02-23T10:01:32;5.18;;;1.40;;
62848;SDS011;48941;49.516;8.286;2024-02-23T10:04:00;7.88;;;1.45;;
62848;SDS011;48941;49.516;8.286;2024-02-23T10:06:34;9.05;;;1.88;;
62848;SDS011;48941;49.516;8.286;2024-02-23T10:09:02;3.70;;;1.40;;
62848;SDS011;48941;49.516;8.286;2024-02-23T10:11:31;5.47;;;1.30;;
62848;SDS011;48941;49.516;8.286;2024-02-23T10:13:59;5.47;;;1.60;;
62848;SDS011;48941;49.516;8.286;2024-02-23T10:16:27;7.22;;;1.50;;
62848;SDS011;48941;49.516;8.286;2024-02-23T10:18:56;4.55;;;1.30;;
62848;SDS011;48941;49.516;8.286;2024-02-23T10:21:25;6.25;;;1.30;;
62848;SDS011;48941;49.516;8.286;2024-02-23T10:23:52;6.78;;;1.67;;
62848;SDS011;48941;49.516;8.286;2024-02-23T10:26:20;8.25;;;1.65;;
62848;SDS011;48941;49.516;8.286;2024-02-23T10:28:49;7.07;;;1.75;;
62848;SDS011;48941;49.516;8.286;2024-02-23T10:31:17;5.22;;;1.83;;
62848;SDS011;48941;49.516;8.286;2024-02-23T10:33:45;5.97;;;1.67;;
62848;SDS011;48941;49.516;8.286;2024-02-23T10:36:16;7.50;;;1.42;;
62848;SDS011;48941;49.516;8.286;2024-02-23T10:38:45;5.70;;;1.48;;
62848;SDS011;48941;49.516;8.286;2024-02-23T10:41:14;7.72;;;2.17;;
62848;SDS011;48941;49.516;8.286;2024-02-23T10:43:45;4.80;;;1.25;;
62848;SDS011;48941;49.516;8.286;2024-02-23T10:46:14;15.32;;;1.90;;
62848;SDS011;48941;49.516;8.286;2024-02-23T10:48:43;4.38;;;1.42;;
62848;SDS011;48941;49.516;8.286;2024-02-23T10:51:13;3.40;;;1.05;;
62848;SDS011;48941;49.516;8.286;2024-02-23T10:53:48;7.90;;;1.73;;
62848;SDS011;48941;49.516;8.286;2024-02-23T10:56:16;6.53;;;1.45;;
62848;SDS011;48941;49.516;8.286;2024-02-23T10:58:44;7.07;;;1.40;;
62848;SDS011;48941;49.516;8.286;2024-02-23T11:01:12;6.80;;;1.73;;
62848;SDS011;48941;49.516;8.286;2024-02-23T11:03:42;4.60;;;1.58;;
62848;SDS011;48941;49.516;8.286;2024-02-23T11:06:14;8.55;;;1.42;;
62848;SDS011;48941;49.516;8.286;2024-02-23T11:08:49;8.13;;;1.42;;
62848;SDS011;48941;49.516;8.286;2024-02-23T11:11:18;5.53;;;1.52;;
62848;SDS011;48941;49.516;8.286;2024-02-23T11:13:46;6.22;;;1.20;;
62848;SDS011;48941;49.516;8.286;2024-02-23T11:16:21;9.57;;;1.77;;
62848;SDS011;48941;49.516;8.286;2024-02-23T11:18:50;7.43;;;1.80;;
62848;SDS011;48941;49.516;8.286;2024-02-23T11:21:34;10.32;;;2.58;;
62848;SDS011;48941;49.516;8.286;2024-02-23T11:24:05;8.43;;;2.15;;
62848;SDS011;48941;49.516;8.286;2024-02-23T11:26:36;6.03;;;1.67;;
62848;SDS011;48941;49.516;8.286;2024-02-23T11:29:09;6.05;;;1.40;;
62848;SDS011;48941;49.516;8.286;2024-02-23T11:31:43;3.80;;;1.48;;
62848;SDS011;48941;49.516;8.286;2024-02-23T11:34:13;6.70;;;1.45;;
62848;SDS011;48941;49.516;8.286;2024-02-23T11:36:41;5.03;;;1.70;;
62848;SDS011;48941;49.516;8.286;2024-02-23T11:39:10;9.65;;;2.60;;
62848;SDS011;48941;49.516;8.286;2024-02-23T11:41:41;7.47;;;2.20;;
62848;SDS011;48941;49.516;8.286;2024-02-23T11:44:09;8.43;;;2.90;;
62848;SDS011;48941;49.516;8.286;2024-02-23T11:46:39;7.70;;;2.58;;
62848;SDS011;48941;49.516;8.286;2024-02-23T11:49:08;9.45;;;2.60;;
62848;SDS011;48941;49.516;8.286;2024-02-23T11:51:36;5.50;;;2.30;;
62848;SDS011;48941;49.516;8.286;2024-02-23T11:54:04;5.13;;;1.85;;
62848;SDS011;48941;49.516;8.286;2024-02-23T11:56:33;3.47;;;1.70;;
62848;SDS011;48941;49.516;8.286;2024-02-23T11:59:01;9.13;;;1.58;;
62848;SDS011;48941;49.516;8.286;2024-02-23T12:01:30;4.70;;;1.30;;
62848;SDS011;48941;49.516;8.286;2024-02-23T12:03:58;5.75;;;2.00;;
62848;SDS011;48941;49.516;8.286;2024-02-23T12:06:26;8.27;;;1.42;;
62848;SDS011;48941;49.516;8.286;2024-02-23T12:08:56;7.20;;;1.60;;
62848;SDS011;48941;49.516;8.286;2024-02-23T12:11:24;6.75;;;1.67;;
62848;SDS011;48941;49.516;8.286;2024-02-23T12:13:56;5.35;;;1.52;;
62848;SDS011;48941;49.516;8.286;2024-02-23T12:16:26;3.50;;;1.67;;
62848;SDS011;48941;49.516;8.286;2024-02-23T12:18:54;6.88;;;1.25;;
62848;SDS011;48941;49.516;8.286;2024-02-23T12:21:23;8.20;;;2.08;;
62848;SDS011;48941;49.516;8.286;2024-02-23T12:23:51;4.60;;;1.40;;
62848;SDS011;48941;49.516;8.286;2024-02-23T12:26:19;2.83;;;1.52;;
62848;SDS011;48941;49.516;8.286;2024-02-23T12:28:47;3.95;;;1.98;;
62848;SDS011;48941;49.516;8.286;2024-02-23T12:31:16;4.65;;;1.45;;
62848;SDS011;48941;49.516;8.286;2024-02-23T12:33:52;4.25;;;1.55;;
62848;SDS011;48941;49.516;8.286;2024-02-23T12:36:20;3.08;;;1.45;;
62848;SDS011;48941;49.516;8.286;2024-02-23T12:38:48;4.85;;;1.63;;
62848;SDS011;48941;49.516;8.286;2024-02-23T12:41:16;8.57;;;1.50;;
62848;SDS011;48941;49.516;8.286;2024-02-23T12:43:43;2.85;;;1.40;;
62848;SDS011;48941;49.516;8.286;2024-02-23T12:46:14;5.22;;;1.50;;
62848;SDS011;48941;49.516;8.286;2024-02-23T12:48:43;5.57;;;1.63;;
62848;SDS011;48941;49.516;8.286;2024-02-23T12:51:11;4.32;;;1.23;;
62848;SDS011;48941;49.516;8.286;2024-02-23T12:53:40;9.18;;;1.42;;
62848;SDS011;48941;49.516;8.286;2024-02-23T12:56:09;11.55;;;2.80;;
62848;SDS011;48941;49.516;8.286;2024-02-23T12:58:38;5.07;;;1.50;;
62848;SDS011;48941;49.516;8.286;2024-02-23T13:01:07;7.40;;;1.40;;
62848;SDS011;48941;49.516;8.286;2024-02-23T13:03:36;5.68;;;1.40;;
62848;SDS011;48941;49.516;8.286;2024-02-23T13:06:08;6.38;;;1.48;;
62848;SDS011;48941;49.516;8.286;2024-02-23T13:08:35;4.35;;;1.60;;
62848;SDS011;48941;49.516;8.286;2024-02-23T13:11:05;3.90;;;1.35;;
62848;SDS011;48941;49.516;8.286;2024-02-23T13:13:33;5.45;;;1.33;;
62848;SDS011;48941;49.516;8.286;2024-02-23T13:16:01;4.70;;;1.50;;
62848;SDS011;48941;49.516;8.286;2024-02-23T13:18:29;7.82;;;1.92;;
62848;SDS011;48941;49.516;8.286;2024-02-23T13:20:57;5.97;;;1.60;;
62848;SDS011;48941;49.516;8.286;2024-02-23T13:23:27;4.20;;;1.75;;
62848;SDS011;48941;49.516;8.286;2024-02-23T13:25:55;4.88;;;1.50;;
62848;SDS011;48941;49.516;8.286;2024-02-23T13:28:22;6.88;;;2.78;;
62848;SDS011;48941;49.516;8.286;2024-02-23T13:30:50;4.50;;;1.58;;
62848;SDS011;48941;49.516;8.286;2024-02-23T13:33:18;4.85;;;1.60;;
62848;SDS011;48941;49.516;8.286;2024-02-23T13:35:48;7.40;;;1.83;;
62848;SDS011;48941;49.516;8.286;2024-02-23T13:38:16;6.53;;;1.63;;
62848;SDS011;48941;49.516;8.286;2024-02-23T13:40:46;4.50;;;1.30;;
62848;SDS011;48941;49.516;8.286;2024-02-23T13:43:17;4.18;;;1.25;;
62848;SDS011;48941;49.516;8.286;2024-02-23T13:45:49;5.30;;;2.28;;
62848;SDS011;48941;49.516;8.286;2024-02-23T13:48:18;4.15;;;1.42;;
62848;SDS011;48941;49.516;8.286;2024-02-23T13:50:46;4.78;;;1.13;;
62848;SDS011;48941;49.516;8.286;2024-02-23T13:53:14;3.88;;;1.00;;
62848;SDS011;48941;49.516;8.286;2024-02-23T13:55:42;7.57;;;1.80;;
62848;SDS011;48941;49.516;8.286;2024-02-23T13:58:12;4.07;;;1.55;;
62848;SDS011;48941;49.516;8.286;2024-02-23T14:00:39;5.15;;;1.55;;
62848;SDS011;48941;49.516;8.286;2024-02-23T14:03:08;6.30;;;1.42;;
62848;SDS011;48941;49.516;8.286;2024-02-23T14:05:36;4.43;;;1.13;;
62848;SDS011;48941;49.516;8.286;2024-02-23T14:08:04;3.05;;;1.25;;
62848;SDS011;48941;49.516;8.286;2024-02-23T14:10:34;2.50;;;1.30;;
62848;SDS011;48941;49.516;8.286;2024-02-23T14:13:02;5.28;;;1.20;;
62848;SDS011;48941;49.516;8.286;2024-02-23T14:15:32;1.55;;;1.05;;
62848;SDS011;48941;49.516;8.286;2024-02-23T14:17:59;5.65;;;1.33;;
62848;SDS011;48941;49.516;8.286;2024-02-23T14:20:27;4.68;;;1.45;;
62848;SDS011;48941;49.516;8.286;2024-02-23T14:22:55;4.03;;;1.30;;
62848;SDS011;48941;49.516;8.286;2024-02-23T14:25:24;4.15;;;1.40;;
62848;SDS011;48941;49.516;8.286;2024-02-23T14:27:51;1.45;;;1.08;;
62848;SDS011;48941;49.516;8.286;2024-02-23T14:30:22;4.45;;;1.70;;
62848;SDS011;48941;49.516;8.286;2024-02-23T14:32:50;2.80;;;1.20;;
62848;SDS011;48941;49.516;8.286;2024-02-23T14:35:18;3.13;;;1.20;;
62848;SDS011;48941;49.516;8.286;2024-02-23T14:37:46;2.25;;;1.20;;
62848;SDS011;48941;49.516;8.286;2024-02-23T14:40:14;3.55;;;1.10;;
62848;SDS011;48941;49.516;8.286;2024-02-23T14:42:42;2.53;;;1.10;;
62848;SDS011;48941;49.516;8.286;2024-02-23T14:45:10;5.20;;;1.40;;
62848;SDS011;48941;49.516;8.286;2024-02-23T14:47:39;2.58;;;1.42;;
62848;SDS011;48941;49.516;8.286;2024-02-23T14:50:13;4.20;;;1.40;;
62848;SDS011;48941;49.516;8.286;2024-02-23T14:52:41;3.78;;;1.45;;
62848;SDS011;48941;49.516;8.286;2024-02-23T14:55:10;4.97;;;1.52;;
62848;SDS011;48941;49.516;8.286;2024-02-23T14:57:38;6.05;;;1.40;;